createdAt,value
2018-03-26T00:01:31.218Z,70.10
2018-03-26T00:03:59.017Z,70.10
2018-03-26T00:06:26.978Z,70.20
2018-03-26T00:08:55.484Z,70.10
2018-03-26T00:11:23.339Z,70.30
2018-03-26T00:13:51.187Z,71.20
2018-03-26T00:16:19.162Z,70.30
2018-03-26T00:18:47.138Z,70.60
2018-03-26T00:21:16.523Z,71.70
2018-03-26T00:23:44.697Z,71.70
2018-03-26T00:26:13.388Z,71.30
2018-03-26T00:28:41.355Z,71.20
2018-03-26T00:31:09.319Z,70.60
2018-03-26T00:33:37.188Z,70.70
2018-03-26T00:36:04.952Z,70.60
2018-03-26T00:38:32.917Z,70.30
2018-03-26T00:41:00.894Z,70.40
2018-03-26T00:43:28.822Z,70.10
2018-03-26T00:45:57.033Z,70.40
2018-03-26T00:48:25.118Z,70.60
2018-03-26T00:50:53.172Z,71.50
2018-03-26T00:53:27.699Z,70.50
2018-03-26T00:55:55.378Z,70.50
2018-03-26T00:58:23.144Z,70.60
2018-03-26T01:00:51.196Z,70.60
2018-03-26T01:03:18.858Z,70.10
2018-03-26T01:05:46.918Z,70.20
2018-03-26T01:08:15.174Z,69.70
2018-03-26T01:10:43.077Z,69.70
2018-03-26T01:13:11.033Z,70.60
2018-03-26T01:15:39.304Z,70.60
2018-03-26T01:18:06.974Z,70.70
2018-03-26T01:20:34.735Z,70.40
2018-03-26T01:23:02.631Z,71.60
2018-03-26T01:25:30.697Z,72.10
2018-03-26T01:27:59.253Z,71.60
2018-03-26T01:30:27.424Z,71.60
2018-03-26T01:32:55.564Z,71.80
2018-03-26T01:35:23.564Z,71.40
2018-03-26T01:37:51.335Z,71.60
2018-03-26T01:40:19.002Z,72.30
2018-03-26T01:42:46.972Z,72.60
2018-03-26T01:45:14.838Z,72.30
2018-03-26T01:47:43.100Z,72.50
2018-03-26T01:50:10.968Z,72.80
2018-03-26T01:52:39.039Z,72.70
2018-03-26T01:55:06.814Z,73.40
2018-03-26T01:57:34.895Z,73.20
2018-03-26T02:00:03.043Z,73.00
2018-03-26T02:02:30.929Z,73.30
2018-03-26T02:04:58.983Z,73.30
2018-03-26T02:07:27.153Z,73.10
2018-03-26T02:09:55.239Z,72.90
2018-03-26T02:12:23.129Z,72.90
2018-03-26T02:14:52.104Z,73.80
2018-03-26T02:17:19.853Z,73.70
2018-03-26T02:19:47.949Z,73.60
2018-03-26T02:22:15.814Z,73.40
2018-03-26T02:24:44.168Z,74.70
2018-03-26T02:27:12.338Z,73.40
2018-03-26T02:29:40.408Z,73.30
2018-03-26T02:32:08.579Z,72.90
2018-03-26T02:34:36.554Z,72.80
2018-03-26T02:37:04.622Z,73.20
2018-03-26T02:39:32.392Z,73.30
2018-03-26T02:42:00.561Z,74.20
2018-03-26T02:44:28.759Z,73.90
2018-03-26T02:46:56.638Z,75.10
2018-03-26T02:49:25.308Z,76.50
2018-03-26T02:51:53.636Z,76.50
2018-03-26T02:54:22.259Z,77.10
2018-03-26T02:56:51.241Z,77.70
2018-03-26T02:59:19.006Z,76.90
2018-03-26T03:01:47.070Z,76.70
2018-03-26T03:04:14.965Z,76.00
2018-03-26T03:06:42.719Z,75.80
2018-03-26T03:09:11.407Z,75.10
2018-03-26T03:11:39.248Z,74.60
2018-03-26T03:14:07.231Z,74.60
2018-03-26T03:16:35.198Z,74.30
2018-03-26T03:19:03.463Z,74.10
2018-03-26T03:21:31.428Z,73.80
2018-03-26T03:23:59.328Z,73.70
2018-03-26T03:26:28.196Z,74.60
2018-03-26T03:28:56.338Z,74.60
2018-03-26T03:31:24.133Z,74.30
2018-03-26T03:33:52.097Z,74.60
2018-03-26T03:36:20.062Z,74.80
2018-03-26T03:38:48.243Z,74.10
2018-03-26T03:41:16.432Z,74.80
2018-03-26T03:43:44.483Z,74.30
2018-03-26T03:46:12.428Z,74.60
2018-03-26T03:48:40.519Z,74.50
2018-03-26T03:51:08.813Z,74.60
2018-03-26T03:53:37.578Z,74.20
2018-03-26T03:56:05.547Z,74.20
2018-03-26T03:58:33.540Z,74.10
2018-03-26T04:01:01.407Z,74.00
2018-03-26T04:03:29.455Z,74.10
2018-03-26T04:05:57.529Z,74.10
2018-03-26T04:08:25.492Z,73.00
2018-03-26T04:10:53.382Z,73.10
2018-03-26T04:13:21.231Z,73.00
2018-03-26T04:15:49.298Z,71.80
2018-03-26T04:18:17.175Z,72.00
2018-03-26T04:20:45.244Z,72.50
2018-03-26T04:23:13.205Z,71.30
2018-03-26T04:25:41.265Z,71.80
2018-03-26T04:28:09.550Z,71.50
2018-03-26T04:30:37.420Z,71.70
2018-03-26T04:33:05.301Z,72.80
2018-03-26T04:35:34.279Z,70.70
2018-03-26T04:38:02.058Z,70.70
2018-03-26T04:40:29.914Z,70.80
2018-03-26T04:42:57.893Z,70.90
2018-03-26T04:45:25.747Z,72.10
2018-03-26T04:47:53.709Z,71.90
2018-03-26T04:50:21.880Z,71.50
2018-03-26T04:52:49.853Z,70.50
2018-03-26T04:55:18.022Z,69.70
2018-03-26T04:57:45.795Z,70.10
2018-03-26T05:00:15.084Z,70.30
2018-03-26T05:02:43.774Z,70.10
2018-03-26T05:05:11.454Z,70.40
2018-03-26T05:07:39.609Z,69.90
2018-03-26T05:10:07.581Z,69.80
2018-03-26T05:12:35.449Z,69.50
2018-03-26T05:15:03.428Z,70.30
2018-03-26T05:17:31.676Z,69.40
2018-03-26T05:19:59.655Z,70.00
2018-03-26T05:22:27.416Z,69.70
2018-03-26T05:24:55.508Z,69.00
2018-03-26T05:27:24.708Z,69.80
2018-03-26T05:29:54.293Z,69.40
2018-03-26T05:32:22.266Z,69.30
2018-03-26T05:34:50.026Z,69.40
2018-03-26T05:37:17.905Z,70.00
2018-03-26T05:39:45.860Z,69.70
2018-03-26T05:42:13.838Z,70.00
2018-03-26T05:44:41.801Z,69.40
2018-03-26T05:47:09.877Z,69.20
2018-03-26T05:49:37.833Z,68.90
2018-03-26T05:52:05.803Z,68.80
2018-03-26T05:54:33.874Z,68.80
2018-03-26T05:57:01.948Z,68.70
2018-03-26T05:59:29.818Z,68.80
2018-03-26T06:01:58.602Z,68.00
2018-03-26T06:04:26.674Z,68.00
2018-03-26T06:06:54.754Z,67.90
2018-03-26T06:09:22.708Z,67.90
2018-03-26T06:11:50.785Z,68.00
2018-03-26T06:14:18.748Z,67.50
2018-03-26T06:19:50.423Z,67.80
2018-03-26T06:22:18.392Z,68.20
2018-03-26T06:24:46.681Z,67.90
2018-03-26T06:27:14.532Z,68.20
2018-03-26T06:29:42.721Z,67.60
2018-03-26T06:32:10.886Z,68.10
2018-03-26T06:34:38.962Z,67.30
2018-03-26T06:37:06.923Z,67.60
2018-03-26T06:39:34.691Z,66.90
2018-03-26T06:42:02.658Z,67.50
2018-03-26T06:44:30.727Z,67.70
2018-03-26T06:46:59.743Z,67.90
2018-03-26T06:49:27.490Z,67.90
2018-03-26T06:51:55.650Z,68.20
2018-03-26T06:54:23.625Z,68.00
2018-03-26T06:56:51.495Z,67.50
2018-03-26T06:59:19.763Z,67.70
2018-03-26T07:01:47.647Z,68.20
2018-03-26T07:04:15.701Z,67.30
2018-03-26T07:06:43.582Z,67.20
2018-03-26T07:09:11.838Z,67.20
2018-03-26T07:11:39.817Z,66.70
2018-03-26T07:14:07.784Z,66.70
2018-03-26T07:16:35.849Z,65.60
2018-03-26T07:19:03.816Z,65.50
2018-03-26T07:21:31.714Z,64.80
2018-03-26T07:23:59.872Z,64.30
2018-03-26T07:26:28.077Z,63.40
2018-03-26T07:28:56.877Z,62.30
2018-03-26T07:31:25.626Z,61.80
2018-03-26T07:33:53.370Z,61.80
2018-03-26T07:36:21.047Z,60.90
2018-03-26T07:38:48.900Z,61.20
2018-03-26T07:41:16.891Z,61.50
2018-03-26T07:43:44.835Z,61.60
2018-03-26T07:46:13.029Z,60.60
2018-03-26T07:48:41.181Z,61.20
2018-03-26T07:51:09.465Z,59.10
2018-03-26T07:53:37.628Z,58.60
2018-03-26T07:56:05.596Z,58.10
2018-03-26T07:58:33.778Z,57.90
2018-03-26T08:01:02.764Z,56.80
2018-03-26T08:03:30.738Z,56.30
2018-03-26T08:05:58.684Z,55.70
2018-03-26T08:08:26.686Z,55.80
2018-03-26T08:10:54.642Z,54.00
2018-03-26T08:13:22.540Z,53.90
2018-03-26T08:15:51.542Z,52.60
2018-03-26T08:18:20.500Z,52.40
2018-03-26T08:20:48.667Z,52.40
2018-03-26T08:23:16.860Z,52.20
2018-03-26T08:25:45.023Z,51.70
2018-03-26T08:28:12.993Z,51.80
2018-03-26T08:30:41.152Z,50.70
2018-03-26T08:33:09.189Z,49.80
2018-03-26T08:35:37.318Z,50.00
2018-03-26T08:38:05.177Z,50.30
2018-03-26T08:40:33.643Z,50.00
2018-03-26T08:43:01.536Z,50.50
2018-03-26T08:45:30.456Z,46.90
2018-03-26T08:47:58.370Z,47.70
2018-03-26T08:50:27.167Z,48.80
2018-03-26T08:52:56.042Z,48.20
2018-03-26T08:55:24.115Z,47.60
2018-03-26T08:57:52.211Z,47.10
2018-03-26T09:00:20.362Z,47.60
2018-03-26T09:02:48.432Z,47.70
2018-03-26T09:05:16.424Z,47.30
2018-03-26T09:07:44.291Z,45.90
2018-03-26T09:10:14.994Z,46.40
2018-03-26T09:12:42.883Z,46.40
2018-03-26T09:15:10.923Z,44.90
2018-03-26T09:17:38.908Z,44.40
2018-03-26T09:20:07.179Z,42.50
2018-03-26T09:22:36.272Z,42.60
2018-03-26T09:25:04.365Z,41.00
2018-03-26T09:27:32.118Z,41.90
2018-03-26T09:30:00.323Z,42.40
2018-03-26T09:32:29.093Z,41.20
2018-03-26T09:34:56.963Z,41.10
2018-03-26T09:37:25.928Z,40.50
2018-03-26T09:39:53.889Z,38.90
2018-03-26T09:42:22.095Z,39.70
2018-03-26T09:44:50.346Z,40.90
2018-03-26T09:47:18.526Z,37.70
2018-03-26T09:49:46.509Z,36.80
2018-03-26T09:52:14.363Z,38.80
2018-03-26T09:54:42.500Z,38.10
2018-03-26T09:57:10.599Z,39.80
2018-03-26T09:59:39.601Z,40.60
2018-03-26T10:02:07.657Z,42.20
2018-03-26T10:04:35.630Z,42.80
2018-03-26T10:07:03.603Z,44.30
2018-03-26T10:09:31.698Z,45.00
2018-03-26T10:11:59.533Z,45.70
2018-03-26T10:14:27.722Z,47.00
2018-03-26T10:16:55.787Z,46.10
2018-03-26T10:19:23.957Z,46.50
2018-03-26T10:21:51.820Z,46.00
2018-03-26T10:24:20.355Z,47.40
2018-03-26T10:26:49.090Z,47.50
2018-03-26T10:29:17.230Z,47.50
2018-03-26T10:31:45.242Z,48.00
2018-03-26T10:34:13.203Z,48.80
2018-03-26T10:36:41.180Z,49.10
2018-03-26T10:39:09.506Z,49.90
2018-03-26T10:41:37.922Z,48.60
2018-03-26T10:44:05.793Z,49.20
2018-03-26T10:46:34.795Z,48.70
2018-03-26T10:49:02.883Z,48.20
2018-03-26T10:51:30.734Z,47.70
2018-03-26T10:53:59.033Z,48.60
2018-03-26T10:56:28.096Z,49.20
2018-03-26T10:58:57.079Z,49.20
2018-03-26T11:01:25.467Z,48.30
2018-03-26T11:03:54.357Z,49.20
2018-03-26T11:06:22.220Z,48.20
2018-03-26T11:08:50.438Z,48.00
2018-03-26T11:11:19.176Z,47.80
2018-03-26T11:13:47.260Z,47.80
2018-03-26T11:16:15.127Z,47.70
2018-03-26T11:18:43.084Z,48.10
2018-03-26T11:21:11.255Z,47.80
2018-03-26T11:23:39.124Z,47.80
2018-03-26T11:26:07.127Z,47.70
2018-03-26T11:28:35.061Z,48.40
2018-03-26T11:31:03.029Z,48.60
2018-03-26T11:33:31.227Z,47.60
2018-03-26T11:35:59.106Z,48.70
2018-03-26T11:38:27.750Z,47.80
2018-03-26T11:40:55.521Z,47.70
2018-03-26T11:43:23.490Z,47.30
2018-03-26T11:45:51.397Z,48.10
2018-03-26T11:48:20.053Z,48.60
2018-03-26T11:50:48.009Z,48.60
2018-03-26T11:53:15.884Z,50.10
2018-03-26T11:55:45.022Z,50.50
2018-03-26T11:58:13.958Z,51.60
2018-03-26T12:00:41.992Z,51.50
2018-03-26T12:03:10.541Z,52.10
2018-03-26T12:05:38.586Z,52.20
2018-03-26T12:08:06.451Z,52.10
2018-03-26T12:10:34.432Z,52.20
2018-03-26T12:13:03.527Z,51.30
2018-03-26T12:15:31.487Z,51.80
2018-03-26T12:17:59.453Z,52.50
2018-03-26T12:20:39.729Z,52.50
2018-03-26T12:23:19.656Z,51.00
2018-03-26T12:25:47.569Z,51.20
2018-03-26T12:28:29.108Z,49.60
2018-03-26T12:30:57.238Z,49.50
2018-03-26T12:33:25.554Z,50.60
2018-03-26T12:35:56.600Z,50.00
2018-03-26T12:38:24.686Z,49.80
2018-03-26T12:40:54.622Z,49.50
2018-03-26T12:43:23.477Z,50.90
2018-03-26T12:46:03.132Z,50.90
2018-03-26T12:48:31.011Z,51.20
2018-03-26T12:51:10.522Z,51.90
2018-03-26T12:53:38.399Z,50.40
2018-03-26T12:56:06.354Z,50.10
2018-03-26T12:58:46.000Z,51.90
2018-03-26T13:01:25.858Z,52.00
2018-03-26T13:03:53.930Z,50.90
2018-03-26T13:06:21.861Z,51.80
2018-03-26T13:08:49.764Z,51.60
2018-03-26T13:11:18.176Z,52.20
2018-03-26T13:13:46.763Z,52.70
2018-03-26T13:16:14.994Z,52.70
2018-03-26T13:18:43.977Z,53.40
2018-03-26T13:21:12.102Z,53.90
2018-03-26T13:23:40.842Z,54.50
2018-03-26T13:26:08.913Z,54.50
2018-03-26T13:28:37.129Z,55.10
2018-03-26T13:31:05.779Z,54.50
2018-03-26T13:33:33.647Z,54.40
2018-03-26T13:36:01.615Z,55.00
2018-03-26T13:38:29.777Z,54.90
2018-03-26T13:40:57.648Z,54.60
2018-03-26T13:43:25.842Z,54.30
2018-03-26T13:45:54.089Z,54.60
2018-03-26T13:48:22.191Z,53.60
2018-03-26T13:50:50.239Z,53.30
2018-03-26T13:53:18.205Z,53.30
2018-03-26T13:55:46.273Z,53.10
2018-03-26T13:58:14.242Z,51.60
2018-03-26T14:00:42.315Z,51.30
2018-03-26T14:03:10.282Z,51.70
2018-03-26T14:05:38.554Z,50.50
2018-03-26T14:08:06.538Z,49.70
2018-03-26T14:10:46.475Z,50.00
2018-03-26T14:13:26.524Z,49.30
2018-03-26T14:16:06.478Z,50.10
2018-03-26T14:18:35.261Z,50.00
2018-03-26T14:21:03.128Z,49.00
2018-03-26T14:23:31.230Z,49.00
2018-03-26T14:25:59.173Z,48.90
2018-03-26T14:28:27.238Z,49.70
2018-03-26T14:30:55.564Z,50.10
2018-03-26T14:33:24.308Z,50.90
2018-03-26T14:35:52.491Z,50.90
2018-03-26T14:38:20.378Z,51.50
2018-03-26T14:40:49.461Z,51.40
2018-03-26T14:43:17.587Z,51.40
2018-03-26T14:45:45.591Z,51.10
2018-03-26T14:48:13.547Z,50.50
2018-03-26T14:50:41.525Z,51.40
2018-03-26T14:53:09.491Z,50.80
2018-03-26T14:55:37.561Z,51.60
2018-03-26T14:58:05.730Z,51.60
2018-03-26T15:00:33.710Z,52.50
2018-03-26T15:03:01.786Z,52.40
2018-03-26T15:05:29.841Z,53.10
2018-03-26T15:07:58.031Z,53.10
2018-03-26T15:10:26.447Z,53.50
2018-03-26T15:12:55.308Z,54.50
2018-03-26T15:15:23.255Z,54.50
2018-03-26T15:17:51.388Z,53.90
2018-03-26T15:20:19.486Z,54.90
2018-03-26T15:22:47.477Z,55.50
2018-03-26T15:25:15.432Z,55.20
2018-03-26T15:27:43.397Z,55.70
2018-03-26T15:30:12.902Z,55.30
2018-03-26T15:32:40.673Z,55.70
2018-03-26T15:35:08.970Z,55.50
2018-03-26T15:37:36.624Z,55.70
2018-03-26T15:40:05.114Z,55.20
2018-03-26T15:42:32.916Z,55.70
2018-03-26T15:45:01.019Z,56.00
2018-03-26T15:47:29.220Z,55.90
2018-03-26T15:49:57.146Z,56.20
2018-03-26T15:52:25.035Z,56.80
2018-03-26T15:54:52.795Z,56.40
2018-03-26T15:57:20.770Z,56.50
2018-03-26T15:59:48.836Z,55.90
2018-03-26T16:02:16.595Z,56.40
2018-03-26T16:04:44.360Z,56.80
2018-03-26T16:07:12.544Z,56.30
2018-03-26T16:09:40.505Z,56.00
2018-03-26T16:12:08.820Z,56.20
2018-03-26T16:14:37.480Z,56.50
2018-03-26T16:17:05.636Z,56.50
2018-03-26T16:19:33.400Z,57.20
2018-03-26T16:22:01.383Z,58.30
2018-03-26T16:24:29.440Z,58.00
2018-03-26T16:26:58.230Z,58.40
2018-03-26T16:29:26.100Z,59.20
2018-03-26T16:31:53.960Z,58.70
2018-03-26T16:34:22.033Z,59.10
2018-03-26T16:36:50.209Z,59.00
2018-03-26T16:39:18.175Z,59.20
2018-03-26T16:41:47.985Z,59.40
2018-03-26T16:44:15.749Z,59.40
2018-03-26T16:46:44.125Z,59.20
2018-03-26T16:49:12.110Z,60.30
2018-03-26T16:51:40.383Z,59.90
2018-03-26T16:54:08.243Z,59.80
2018-03-26T16:56:36.318Z,59.20
2018-03-26T16:59:04.083Z,59.60
2018-03-26T17:01:31.755Z,59.30
2018-03-26T17:04:00.421Z,59.00
2018-03-26T17:06:28.096Z,59.10
2018-03-26T17:08:56.180Z,59.10
2018-03-26T17:11:24.141Z,60.20
2018-03-26T17:13:52.500Z,59.60
2018-03-26T17:16:20.470Z,59.40
2018-03-26T17:18:48.439Z,59.70
2018-03-26T17:21:16.300Z,61.50
2018-03-26T17:23:46.061Z,60.90
2018-03-26T17:26:15.930Z,60.80
2018-03-26T17:28:44.715Z,60.80
2018-03-26T17:31:12.794Z,59.90
2018-03-26T17:33:43.177Z,59.70
2018-03-26T17:36:11.797Z,59.70
2018-03-26T17:38:41.013Z,59.00
2018-03-26T17:41:10.917Z,59.80
2018-03-26T17:43:41.221Z,59.80
2018-03-26T17:46:11.941Z,59.50
2018-03-26T17:48:42.436Z,59.40
2018-03-26T17:51:12.685Z,59.30
2018-03-26T17:53:42.821Z,59.00
2018-03-26T17:56:13.077Z,59.40
2018-03-26T17:58:43.165Z,59.10
2018-03-26T18:01:13.990Z,59.10
2018-03-26T18:03:44.710Z,59.00
2018-03-26T18:06:14.901Z,58.70
2018-03-26T18:08:45.420Z,58.70
2018-03-26T18:11:15.301Z,58.60
2018-03-26T18:13:45.413Z,58.80
2018-03-26T18:16:16.101Z,59.10
2018-03-26T18:18:48.040Z,59.50
2018-03-26T18:21:19.015Z,59.10
2018-03-26T18:23:49.398Z,59.00
2018-03-26T18:26:20.405Z,59.00
2018-03-26T18:28:50.885Z,59.00
2018-03-26T18:31:21.163Z,58.70
2018-03-26T18:33:51.461Z,58.90
2018-03-26T18:36:21.360Z,58.80
2018-03-26T18:38:51.862Z,59.40
2018-03-26T18:41:22.598Z,59.10
2018-03-26T18:43:53.085Z,59.20
2018-03-26T18:46:24.901Z,59.70
2018-03-26T18:48:55.944Z,59.80
2018-03-26T18:51:26.710Z,60.10
2018-03-26T18:53:56.822Z,60.00
2018-03-26T18:56:27.109Z,59.90
2018-03-26T18:58:59.813Z,59.80
2018-03-26T19:01:30.427Z,60.00
2018-03-26T19:04:00.200Z,59.30
2018-03-26T19:06:30.472Z,59.70
2018-03-26T19:09:00.720Z,61.10
2018-03-26T19:11:31.381Z,59.80
2018-03-26T19:14:01.886Z,60.00
2018-03-26T19:16:32.136Z,60.20
2018-03-26T19:19:02.773Z,59.70
2018-03-26T19:21:36.121Z,60.20
2018-03-26T19:24:07.317Z,60.40
2018-03-26T19:26:37.318Z,61.10
2018-03-26T19:29:07.558Z,60.50
2018-03-26T19:31:39.061Z,60.60
2018-03-26T19:34:09.740Z,60.60
2018-03-26T19:36:40.197Z,61.20
2018-03-26T19:39:10.869Z,61.70
2018-03-26T19:41:41.758Z,61.80
2018-03-26T19:44:12.790Z,61.70
2018-03-26T19:46:48.837Z,62.10
2018-03-26T19:49:19.277Z,61.20
2018-03-26T19:51:50.505Z,62.00
2018-03-26T19:54:21.736Z,61.70
2018-03-26T19:56:52.675Z,62.20
2018-03-26T19:59:22.607Z,62.10
2018-03-26T20:01:52.639Z,62.60
2018-03-26T20:04:23.510Z,62.60
2018-03-26T20:06:53.856Z,62.60
2018-03-26T20:09:24.360Z,62.90
2018-03-26T20:11:54.740Z,63.50
2018-03-26T20:14:25.540Z,63.80
2018-03-26T20:16:55.781Z,64.00
2018-03-26T20:19:27.257Z,63.80
2018-03-26T20:21:58.717Z,64.20
2018-03-26T20:24:29.441Z,64.10
2018-03-26T20:27:00.159Z,64.20
2018-03-26T20:29:30.838Z,64.30
2018-03-26T20:32:01.531Z,65.50
2018-03-26T20:34:32.589Z,66.10
2018-03-26T20:37:02.796Z,66.10
2018-03-26T20:39:33.514Z,66.80
2018-03-26T20:42:04.420Z,67.20
2018-03-26T20:44:34.455Z,67.20
2018-03-26T20:47:04.096Z,67.10
2018-03-26T20:49:33.662Z,67.30
2018-03-26T20:52:02.688Z,67.40
2018-03-26T20:54:31.374Z,67.90
2018-03-26T20:56:59.625Z,68.20
2018-03-26T20:59:27.700Z,69.10
2018-03-26T21:01:58.713Z,69.50
2018-03-26T21:04:27.089Z,70.20
2018-03-26T21:06:55.402Z,71.70
2018-03-26T21:09:24.388Z,74.20
2018-03-26T21:11:52.556Z,73.30
2018-03-26T21:14:20.625Z,73.60
2018-03-26T21:16:48.881Z,73.90
2018-03-26T21:19:17.180Z,74.50
2018-03-26T21:21:45.353Z,76.20
2018-03-26T21:24:13.604Z,79.40
2018-03-26T21:26:41.804Z,80.30
2018-03-26T21:29:09.664Z,82.10
2018-03-26T21:31:37.925Z,83.20
2018-03-26T21:34:06.320Z,83.30
2018-03-26T21:36:34.186Z,84.00
2018-03-26T21:39:02.159Z,84.50
2018-03-26T21:41:30.537Z,84.10
2018-03-26T21:43:59.735Z,83.90
2018-03-26T21:46:28.112Z,83.90
2018-03-26T21:48:55.949Z,84.20
2018-03-26T21:51:23.950Z,84.20
2018-03-26T21:53:51.913Z,83.90
2018-03-26T21:56:20.296Z,83.80
2018-03-26T21:58:48.542Z,84.20
2018-03-26T22:01:16.942Z,85.10
2018-03-26T22:03:45.385Z,85.40
2018-03-26T22:06:13.498Z,85.60
2018-03-26T22:08:41.729Z,85.30
2018-03-26T22:11:10.040Z,85.50
2018-03-26T22:13:37.912Z,86.70
2018-03-26T22:16:05.985Z,87.20
2018-03-26T22:18:34.026Z,87.10
2018-03-26T22:21:02.124Z,86.80
2018-03-26T22:23:30.920Z,86.70
2018-03-26T22:25:59.908Z,86.50
2018-03-26T22:28:27.875Z,86.50
2018-03-26T22:30:56.025Z,86.40
2018-03-26T22:33:23.906Z,86.20
2018-03-26T22:35:52.085Z,85.50
2018-03-26T22:38:20.461Z,86.10
2018-03-26T22:40:48.615Z,85.90
2018-03-26T22:43:16.890Z,85.70
2018-03-26T22:45:44.779Z,85.20
2018-03-26T22:48:12.849Z,84.90
2018-03-26T22:50:41.023Z,84.50
2018-03-26T22:53:09.194Z,84.30
2018-03-26T22:55:37.065Z,83.90
2018-03-26T22:58:05.235Z,83.80
2018-03-26T23:00:33.317Z,83.30
2018-03-26T23:03:02.607Z,83.80
2018-03-26T23:05:30.894Z,83.90
2018-03-26T23:07:59.564Z,84.30
2018-03-26T23:10:27.644Z,84.80
2018-03-26T23:12:55.519Z,85.20
2018-03-26T23:15:23.368Z,84.80
2018-03-26T23:17:51.550Z,85.40
2018-03-26T23:20:19.714Z,83.70
2018-03-26T23:22:48.810Z,84.40
2018-03-26T23:25:17.095Z,84.40
2018-03-26T23:27:45.122Z,84.30
2018-03-26T23:30:13.326Z,85.00
2018-03-26T23:32:41.709Z,85.10
2018-03-26T23:35:09.780Z,84.60
2018-03-26T23:37:38.267Z,84.20
2018-03-26T23:40:06.950Z,84.70
2018-03-26T23:42:35.025Z,84.60
2018-03-26T23:45:03.190Z,85.20
2018-03-26T23:47:31.055Z,85.30
2018-03-26T23:49:59.005Z,85.10
2018-03-26T23:52:27.505Z,85.40
2018-03-26T23:54:56.914Z,85.30
2018-03-26T23:57:25.185Z,85.80
2018-03-26T23:59:53.670Z,85.90
